sensor_id;sensor_type;location;lat;lon;timestamp;P1;durP1;ratioP1;P2;durP2;ratioP2
55292;SDS011;41157;53.560;10.098;2022-11-14T00:01:42;34.63;;;22.43;;
55292;SDS011;41157;53.560;10.098;2022-11-14T00:04:09;36.53;;;23.27;;
55292;SDS011;41157;53.560;10.098;2022-11-14T00:06:35;32.63;;;23.53;;
55292;SDS011;41157;53.560;10.098;2022-11-14T00:09:01;37.53;;;23.23;;
55292;SDS011;41157;53.560;10.098;2022-11-14T00:11:27;34.73;;;23.57;;
55292;SDS011;41157;53.560;10.098;2022-11-14T00:13:53;34.77;;;23.73;;
55292;SDS011;41157;53.560;10.098;2022-11-14T00:16:19;35.57;;;22.57;;
55292;SDS011;41157;53.560;10.098;2022-11-14T00:18:45;36.23;;;23.47;;
55292;SDS011;41157;53.560;10.098;2022-11-14T00:21:11;36.80;;;24.10;;
55292;SDS011;41157;53.560;10.098;2022-11-14T00:23:37;36.67;;;24.87;;
55292;SDS011;41157;53.560;10.098;2022-11-14T00:26:03;36.63;;;24.23;;
55292;SDS011;41157;53.560;10.098;2022-11-14T00:28:29;35.57;;;24.53;;
55292;SDS011;41157;53.560;10.098;2022-11-14T00:30:55;35.43;;;24.30;;
55292;SDS011;41157;53.560;10.098;2022-11-14T00:33:21;36.77;;;25.10;;
55292;SDS011;41157;53.560;10.098;2022-11-14T00:35:54;36.97;;;23.97;;
55292;SDS011;41157;53.560;10.098;2022-11-14T00:38:21;37.23;;;25.73;;
55292;SDS011;41157;53.560;10.098;2022-11-14T00:40:47;35.17;;;24.53;;
55292;SDS011;41157;53.560;10.098;2022-11-14T00:43:13;38.30;;;25.10;;
55292;SDS011;41157;53.560;10.098;2022-11-14T00:45:41;37.77;;;24.17;;
55292;SDS011;41157;53.560;10.098;2022-11-14T00:48:07;38.87;;;25.60;;
55292;SDS011;41157;53.560;10.098;2022-11-14T00:50:33;36.00;;;25.97;;
55292;SDS011;41157;53.560;10.098;2022-11-14T00:52:59;40.50;;;25.17;;
55292;SDS011;41157;53.560;10.098;2022-11-14T00:55:25;36.30;;;24.43;;
55292;SDS011;41157;53.560;10.098;2022-11-14T00:57:51;36.70;;;24.73;;
55292;SDS011;41157;53.560;10.098;2022-11-14T01:00:17;37.80;;;23.73;;
55292;SDS011;41157;53.560;10.098;2022-11-14T01:02:43;38.80;;;26.00;;
55292;SDS011;41157;53.560;10.098;2022-11-14T01:05:09;37.23;;;24.70;;
55292;SDS011;41157;53.560;10.098;2022-11-14T01:07:35;42.50;;;25.17;;
55292;SDS011;41157;53.560;10.098;2022-11-14T01:10:02;39.40;;;25.93;;
55292;SDS011;41157;53.560;10.098;2022-11-14T01:12:28;35.43;;;25.67;;
55292;SDS011;41157;53.560;10.098;2022-11-14T01:14:54;42.17;;;26.10;;
55292;SDS011;41157;53.560;10.098;2022-11-14T01:17:20;38.67;;;26.00;;
55292;SDS011;41157;53.560;10.098;2022-11-14T01:19:46;42.70;;;26.33;;
55292;SDS011;41157;53.560;10.098;2022-11-14T01:22:12;38.70;;;24.97;;
55292;SDS011;41157;53.560;10.098;2022-11-14T01:24:38;38.73;;;24.70;;
55292;SDS011;41157;53.560;10.098;2022-11-14T01:27:04;39.67;;;25.10;;
55292;SDS011;41157;53.560;10.098;2022-11-14T01:29:30;41.70;;;25.77;;
55292;SDS011;41157;53.560;10.098;2022-11-14T01:31:56;38.50;;;25.80;;
55292;SDS011;41157;53.560;10.098;2022-11-14T01:34:22;39.00;;;25.13;;
55292;SDS011;41157;53.560;10.098;2022-11-14T01:36:49;43.27;;;26.63;;
55292;SDS011;41157;53.560;10.098;2022-11-14T01:39:15;40.13;;;25.27;;
55292;SDS011;41157;53.560;10.098;2022-11-14T01:41:41;40.07;;;26.33;;
55292;SDS011;41157;53.560;10.098;2022-11-14T01:44:14;43.73;;;27.13;;
55292;SDS011;41157;53.560;10.098;2022-11-14T01:46:40;40.50;;;26.07;;
55292;SDS011;41157;53.560;10.098;2022-11-14T01:49:14;43.83;;;27.07;;
55292;SDS011;41157;53.560;10.098;2022-11-14T01:51:46;42.73;;;26.80;;
55292;SDS011;41157;53.560;10.098;2022-11-14T01:54:23;40.03;;;27.07;;
55292;SDS011;41157;53.560;10.098;2022-11-14T01:56:54;47.97;;;27.70;;
55292;SDS011;41157;53.560;10.098;2022-11-14T01:59:22;40.23;;;26.60;;
55292;SDS011;41157;53.560;10.098;2022-11-14T02:01:50;42.20;;;26.63;;
55292;SDS011;41157;53.560;10.098;2022-11-14T02:04:23;38.13;;;25.43;;
55292;SDS011;41157;53.560;10.098;2022-11-14T02:06:50;45.50;;;28.00;;
55292;SDS011;41157;53.560;10.098;2022-11-14T02:09:18;46.07;;;28.27;;
55292;SDS011;41157;53.560;10.098;2022-11-14T02:11:44;41.60;;;27.00;;
55292;SDS011;41157;53.560;10.098;2022-11-14T02:14:11;40.77;;;26.53;;
55292;SDS011;41157;53.560;10.098;2022-11-14T02:16:38;42.30;;;27.07;;
55292;SDS011;41157;53.560;10.098;2022-11-14T02:19:04;43.67;;;27.53;;
55292;SDS011;41157;53.560;10.098;2022-11-14T02:21:30;42.77;;;28.10;;
55292;SDS011;41157;53.560;10.098;2022-11-14T02:23:56;42.93;;;27.03;;
55292;SDS011;41157;53.560;10.098;2022-11-14T02:26:22;42.93;;;26.70;;
55292;SDS011;41157;53.560;10.098;2022-11-14T02:28:48;45.07;;;28.00;;
55292;SDS011;41157;53.560;10.098;2022-11-14T02:31:15;49.20;;;27.23;;
55292;SDS011;41157;53.560;10.098;2022-11-14T02:33:42;44.37;;;28.63;;
55292;SDS011;41157;53.560;10.098;2022-11-14T02:36:08;41.93;;;27.10;;
55292;SDS011;41157;53.560;10.098;2022-11-14T02:38:34;41.47;;;27.30;;
55292;SDS011;41157;53.560;10.098;2022-11-14T02:41:01;42.63;;;27.73;;
55292;SDS011;41157;53.560;10.098;2022-11-14T02:43:27;41.30;;;26.53;;
55292;SDS011;41157;53.560;10.098;2022-11-14T02:45:53;43.57;;;27.10;;
55292;SDS011;41157;53.560;10.098;2022-11-14T02:48:19;40.90;;;26.80;;
55292;SDS011;41157;53.560;10.098;2022-11-14T02:50:47;42.10;;;26.80;;
55292;SDS011;41157;53.560;10.098;2022-11-14T02:53:13;40.73;;;26.83;;
55292;SDS011;41157;53.560;10.098;2022-11-14T02:55:39;41.60;;;27.23;;
55292;SDS011;41157;53.560;10.098;2022-11-14T02:58:05;40.03;;;26.53;;
55292;SDS011;41157;53.560;10.098;2022-11-14T03:00:31;41.80;;;27.80;;
55292;SDS011;41157;53.560;10.098;2022-11-14T03:02:57;41.40;;;27.20;;
55292;SDS011;41157;53.560;10.098;2022-11-14T03:05:23;42.43;;;28.27;;
55292;SDS011;41157;53.560;10.098;2022-11-14T03:07:53;43.33;;;28.43;;
55292;SDS011;41157;53.560;10.098;2022-11-14T03:10:19;44.80;;;28.53;;
55292;SDS011;41157;53.560;10.098;2022-11-14T03:12:45;42.93;;;26.70;;
55292;SDS011;41157;53.560;10.098;2022-11-14T03:15:11;41.17;;;27.37;;
55292;SDS011;41157;53.560;10.098;2022-11-14T03:17:37;44.47;;;28.30;;
55292;SDS011;41157;53.560;10.098;2022-11-14T03:20:03;42.07;;;27.93;;
55292;SDS011;41157;53.560;10.098;2022-11-14T03:22:29;46.77;;;28.83;;
55292;SDS011;41157;53.560;10.098;2022-11-14T03:24:55;41.10;;;27.70;;
55292;SDS011;41157;53.560;10.098;2022-11-14T03:27:21;40.60;;;27.63;;
55292;SDS011;41157;53.560;10.098;2022-11-14T03:29:47;40.80;;;26.83;;
55292;SDS011;41157;53.560;10.098;2022-11-14T03:32:13;40.60;;;28.13;;
55292;SDS011;41157;53.560;10.098;2022-11-14T03:34:39;45.50;;;27.73;;
55292;SDS011;41157;53.560;10.098;2022-11-14T03:37:05;46.23;;;28.40;;
55292;SDS011;41157;53.560;10.098;2022-11-14T03:39:31;41.20;;;27.47;;
55292;SDS011;41157;53.560;10.098;2022-11-14T03:41:57;42.63;;;28.13;;
55292;SDS011;41157;53.560;10.098;2022-11-14T03:44:23;43.70;;;28.23;;
55292;SDS011;41157;53.560;10.098;2022-11-14T03:46:50;42.60;;;28.07;;
55292;SDS011;41157;53.560;10.098;2022-11-14T03:49:16;43.43;;;27.80;;
55292;SDS011;41157;53.560;10.098;2022-11-14T03:51:42;43.70;;;28.57;;
55292;SDS011;41157;53.560;10.098;2022-11-14T03:54:08;47.87;;;29.83;;
55292;SDS011;41157;53.560;10.098;2022-11-14T03:56:34;41.83;;;27.40;;
55292;SDS011;41157;53.560;10.098;2022-11-14T03:59:00;45.70;;;27.67;;
55292;SDS011;41157;53.560;10.098;2022-11-14T04:01:26;45.37;;;28.80;;
55292;SDS011;41157;53.560;10.098;2022-11-14T04:03:53;45.20;;;27.00;;
55292;SDS011;41157;53.560;10.098;2022-11-14T04:06:19;42.53;;;27.17;;
55292;SDS011;41157;53.560;10.098;2022-11-14T04:08:45;43.60;;;26.80;;
55292;SDS011;41157;53.560;10.098;2022-11-14T04:11:11;42.63;;;27.77;;
55292;SDS011;41157;53.560;10.098;2022-11-14T04:13:36;39.80;;;27.60;;
55292;SDS011;41157;53.560;10.098;2022-11-14T04:16:02;43.60;;;27.90;;
55292;SDS011;41157;53.560;10.098;2022-11-14T04:18:29;40.97;;;27.03;;
55292;SDS011;41157;53.560;10.098;2022-11-14T04:20:55;41.60;;;27.03;;
55292;SDS011;41157;53.560;10.098;2022-11-14T04:23:21;43.37;;;26.43;;
55292;SDS011;41157;53.560;10.098;2022-11-14T04:25:47;40.93;;;26.27;;
55292;SDS011;41157;53.560;10.098;2022-11-14T04:28:13;43.37;;;28.57;;
55292;SDS011;41157;53.560;10.098;2022-11-14T04:30:39;46.87;;;27.97;;
55292;SDS011;41157;53.560;10.098;2022-11-14T04:33:05;41.17;;;26.10;;
55292;SDS011;41157;53.560;10.098;2022-11-14T04:35:31;40.50;;;26.40;;
55292;SDS011;41157;53.560;10.098;2022-11-14T04:37:57;47.27;;;26.80;;
55292;SDS011;41157;53.560;10.098;2022-11-14T04:40:23;44.57;;;26.87;;
55292;SDS011;41157;53.560;10.098;2022-11-14T04:42:49;43.93;;;27.17;;
55292;SDS011;41157;53.560;10.098;2022-11-14T04:45:15;44.60;;;26.57;;
55292;SDS011;41157;53.560;10.098;2022-11-14T04:47:41;42.50;;;26.70;;
55292;SDS011;41157;53.560;10.098;2022-11-14T04:50:07;44.13;;;28.13;;
55292;SDS011;41157;53.560;10.098;2022-11-14T04:52:33;43.90;;;27.10;;
55292;SDS011;41157;53.560;10.098;2022-11-14T04:54:59;42.83;;;27.33;;
55292;SDS011;41157;53.560;10.098;2022-11-14T04:57:25;47.03;;;28.03;;
55292;SDS011;41157;53.560;10.098;2022-11-14T04:59:51;44.73;;;28.23;;
55292;SDS011;41157;53.560;10.098;2022-11-14T05:02:17;44.93;;;27.20;;
55292;SDS011;41157;53.560;10.098;2022-11-14T05:04:43;40.87;;;26.83;;
55292;SDS011;41157;53.560;10.098;2022-11-14T05:07:11;45.70;;;27.60;;
55292;SDS011;41157;53.560;10.098;2022-11-14T05:09:37;44.23;;;26.73;;
55292;SDS011;41157;53.560;10.098;2022-11-14T05:12:03;43.37;;;26.67;;
55292;SDS011;41157;53.560;10.098;2022-11-14T05:14:30;45.80;;;27.47;;
55292;SDS011;41157;53.560;10.098;2022-11-14T05:16:56;50.13;;;28.40;;
55292;SDS011;41157;53.560;10.098;2022-11-14T05:19:22;45.50;;;26.90;;
55292;SDS011;41157;53.560;10.098;2022-11-14T05:21:48;46.47;;;29.87;;
55292;SDS011;41157;53.560;10.098;2022-11-14T05:24:14;46.97;;;29.20;;
55292;SDS011;41157;53.560;10.098;2022-11-14T05:26:40;47.10;;;28.97;;
55292;SDS011;41157;53.560;10.098;2022-11-14T05:29:06;47.60;;;28.97;;
55292;SDS011;41157;53.560;10.098;2022-11-14T05:31:32;48.10;;;28.53;;
55292;SDS011;41157;53.560;10.098;2022-11-14T05:33:58;49.10;;;29.47;;
55292;SDS011;41157;53.560;10.098;2022-11-14T05:36:23;46.40;;;27.60;;
55292;SDS011;41157;53.560;10.098;2022-11-14T05:38:49;50.53;;;29.77;;
55292;SDS011;41157;53.560;10.098;2022-11-14T05:41:16;45.27;;;28.83;;
55292;SDS011;41157;53.560;10.098;2022-11-14T05:43:44;46.67;;;29.17;;
55292;SDS011;41157;53.560;10.098;2022-11-14T05:46:11;49.73;;;30.67;;
55292;SDS011;41157;53.560;10.098;2022-11-14T05:48:37;46.70;;;29.83;;
55292;SDS011;41157;53.560;10.098;2022-11-14T05:51:03;45.90;;;28.67;;
55292;SDS011;41157;53.560;10.098;2022-11-14T05:53:30;48.13;;;30.63;;
55292;SDS011;41157;53.560;10.098;2022-11-14T05:56:03;46.93;;;29.33;;
55292;SDS011;41157;53.560;10.098;2022-11-14T05:58:30;53.83;;;30.70;;
55292;SDS011;41157;53.560;10.098;2022-11-14T06:01:15;49.87;;;30.63;;
55292;SDS011;41157;53.560;10.098;2022-11-14T06:03:42;48.30;;;29.80;;
55292;SDS011;41157;53.560;10.098;2022-11-14T06:06:10;53.17;;;30.13;;
55292;SDS011;41157;53.560;10.098;2022-11-14T06:08:36;54.23;;;32.20;;
55292;SDS011;41157;53.560;10.098;2022-11-14T06:11:03;49.17;;;29.80;;
55292;SDS011;41157;53.560;10.098;2022-11-14T06:13:30;49.83;;;29.50;;
55292;SDS011;41157;53.560;10.098;2022-11-14T06:15:59;50.10;;;29.33;;
55292;SDS011;41157;53.560;10.098;2022-11-14T06:18:25;48.27;;;29.80;;
55292;SDS011;41157;53.560;10.098;2022-11-14T06:20:51;46.03;;;29.10;;
55292;SDS011;41157;53.560;10.098;2022-11-14T06:23:17;48.30;;;28.87;;
55292;SDS011;41157;53.560;10.098;2022-11-14T06:25:43;45.67;;;28.40;;
55292;SDS011;41157;53.560;10.098;2022-11-14T06:28:09;46.23;;;29.37;;
55292;SDS011;41157;53.560;10.098;2022-11-14T06:30:35;49.73;;;28.90;;
55292;SDS011;41157;53.560;10.098;2022-11-14T06:33:03;44.90;;;28.13;;
55292;SDS011;41157;53.560;10.098;2022-11-14T06:35:29;49.83;;;28.37;;
55292;SDS011;41157;53.560;10.098;2022-11-14T06:37:57;51.20;;;29.13;;
55292;SDS011;41157;53.560;10.098;2022-11-14T06:40:24;47.20;;;27.97;;
55292;SDS011;41157;53.560;10.098;2022-11-14T06:42:50;45.73;;;28.17;;
55292;SDS011;41157;53.560;10.098;2022-11-14T06:45:15;46.30;;;29.03;;
55292;SDS011;41157;53.560;10.098;2022-11-14T06:47:41;49.57;;;29.67;;
55292;SDS011;41157;53.560;10.098;2022-11-14T06:50:07;44.67;;;28.77;;
55292;SDS011;41157;53.560;10.098;2022-11-14T06:52:42;50.20;;;29.70;;
55292;SDS011;41157;53.560;10.098;2022-11-14T07:11:40;55.20;;;33.43;;
55292;SDS011;41157;53.560;10.098;2022-11-14T07:14:09;51.93;;;32.20;;
55292;SDS011;41157;53.560;10.098;2022-11-14T07:16:35;51.30;;;31.53;;
55292;SDS011;41157;53.560;10.098;2022-11-14T07:19:01;52.30;;;31.67;;
55292;SDS011;41157;53.560;10.098;2022-11-14T07:21:28;52.07;;;30.50;;
55292;SDS011;41157;53.560;10.098;2022-11-14T07:23:55;54.07;;;31.60;;
55292;SDS011;41157;53.560;10.098;2022-11-14T07:26:21;51.23;;;29.73;;
55292;SDS011;41157;53.560;10.098;2022-11-14T07:28:47;49.93;;;30.73;;
55292;SDS011;41157;53.560;10.098;2022-11-14T07:31:14;52.77;;;31.30;;
55292;SDS011;41157;53.560;10.098;2022-11-14T07:33:41;51.93;;;31.33;;
55292;SDS011;41157;53.560;10.098;2022-11-14T07:36:07;52.40;;;30.83;;
55292;SDS011;41157;53.560;10.098;2022-11-14T07:38:34;52.50;;;31.30;;
55292;SDS011;41157;53.560;10.098;2022-11-14T07:41:10;56.60;;;32.40;;
55292;SDS011;41157;53.560;10.098;2022-11-14T07:43:36;53.67;;;32.47;;
55292;SDS011;41157;53.560;10.098;2022-11-14T07:46:03;53.33;;;32.70;;
55292;SDS011;41157;53.560;10.098;2022-11-14T07:48:30;54.97;;;31.77;;
55292;SDS011;41157;53.560;10.098;2022-11-14T07:50:59;55.70;;;32.33;;
55292;SDS011;41157;53.560;10.098;2022-11-14T07:53:26;57.90;;;31.83;;
55292;SDS011;41157;53.560;10.098;2022-11-14T07:55:52;55.20;;;31.03;;
55292;SDS011;41157;53.560;10.098;2022-11-14T07:58:18;53.87;;;32.27;;
55292;SDS011;41157;53.560;10.098;2022-11-14T08:00:44;48.70;;;29.03;;
55292;SDS011;41157;53.560;10.098;2022-11-14T08:03:10;52.77;;;31.83;;
55292;SDS011;41157;53.560;10.098;2022-11-14T08:05:36;49.47;;;30.03;;
55292;SDS011;41157;53.560;10.098;2022-11-14T08:08:02;56.43;;;31.07;;
55292;SDS011;41157;53.560;10.098;2022-11-14T08:10:28;51.87;;;29.90;;
55292;SDS011;41157;53.560;10.098;2022-11-14T08:13:01;54.60;;;30.57;;
55292;SDS011;41157;53.560;10.098;2022-11-14T08:15:27;54.17;;;31.93;;
55292;SDS011;41157;53.560;10.098;2022-11-14T08:17:57;54.60;;;31.07;;
55292;SDS011;41157;53.560;10.098;2022-11-14T08:20:23;53.70;;;31.60;;
55292;SDS011;41157;53.560;10.098;2022-11-14T08:22:50;52.97;;;30.57;;
55292;SDS011;41157;53.560;10.098;2022-11-14T08:25:16;54.47;;;32.40;;
55292;SDS011;41157;53.560;10.098;2022-11-14T08:27:42;56.17;;;32.37;;
55292;SDS011;41157;53.560;10.098;2022-11-14T08:30:08;55.83;;;31.23;;
55292;SDS011;41157;53.560;10.098;2022-11-14T08:32:34;59.10;;;31.03;;
55292;SDS011;41157;53.560;10.098;2022-11-14T08:35:00;57.77;;;31.03;;
55292;SDS011;41157;53.560;10.098;2022-11-14T08:37:26;52.10;;;30.70;;
55292;SDS011;41157;53.560;10.098;2022-11-14T08:39:52;50.87;;;29.60;;
55292;SDS011;41157;53.560;10.098;2022-11-14T08:42:18;57.43;;;31.20;;
55292;SDS011;41157;53.560;10.098;2022-11-14T08:44:44;52.50;;;29.43;;
55292;SDS011;41157;53.560;10.098;2022-11-14T08:47:10;48.97;;;28.80;;
55292;SDS011;41157;53.560;10.098;2022-11-14T08:49:35;53.80;;;30.67;;
55292;SDS011;41157;53.560;10.098;2022-11-14T08:52:01;54.00;;;28.73;;
55292;SDS011;41157;53.560;10.098;2022-11-14T08:54:27;49.43;;;29.37;;
55292;SDS011;41157;53.560;10.098;2022-11-14T08:56:53;59.77;;;30.80;;
55292;SDS011;41157;53.560;10.098;2022-11-14T08:59:19;55.00;;;30.03;;
55292;SDS011;41157;53.560;10.098;2022-11-14T09:01:45;48.43;;;28.50;;
55292;SDS011;41157;53.560;10.098;2022-11-14T09:04:11;55.67;;;29.87;;
55292;SDS011;41157;53.560;10.098;2022-11-14T09:06:37;53.57;;;29.70;;
55292;SDS011;41157;53.560;10.098;2022-11-14T09:09:03;54.00;;;30.90;;
55292;SDS011;41157;53.560;10.098;2022-11-14T09:11:29;51.53;;;30.30;;
55292;SDS011;41157;53.560;10.098;2022-11-14T09:13:55;52.90;;;29.37;;
55292;SDS011;41157;53.560;10.098;2022-11-14T09:16:21;55.73;;;31.70;;
55292;SDS011;41157;53.560;10.098;2022-11-14T09:18:47;55.33;;;30.73;;
55292;SDS011;41157;53.560;10.098;2022-11-14T09:21:13;58.30;;;31.07;;
55292;SDS011;41157;53.560;10.098;2022-11-14T09:23:39;54.37;;;30.27;;
55292;SDS011;41157;53.560;10.098;2022-11-14T09:26:06;51.83;;;30.17;;
55292;SDS011;41157;53.560;10.098;2022-11-14T09:28:32;58.20;;;31.40;;
55292;SDS011;41157;53.560;10.098;2022-11-14T09:31:04;56.80;;;30.67;;
55292;SDS011;41157;53.560;10.098;2022-11-14T09:33:31;59.63;;;31.97;;
55292;SDS011;41157;53.560;10.098;2022-11-14T09:35:57;55.17;;;30.87;;
55292;SDS011;41157;53.560;10.098;2022-11-14T09:38:23;55.23;;;30.13;;
55292;SDS011;41157;53.560;10.098;2022-11-14T09:40:56;52.37;;;30.60;;
55292;SDS011;41157;53.560;10.098;2022-11-14T09:43:28;56.00;;;30.43;;
55292;SDS011;41157;53.560;10.098;2022-11-14T09:45:58;56.20;;;30.67;;
55292;SDS011;41157;53.560;10.098;2022-11-14T09:48:26;56.97;;;30.90;;
55292;SDS011;41157;53.560;10.098;2022-11-14T09:51:06;56.17;;;29.47;;
55292;SDS011;41157;53.560;10.098;2022-11-14T09:53:36;53.50;;;30.83;;
55292;SDS011;41157;53.560;10.098;2022-11-14T09:56:04;62.40;;;31.97;;
55292;SDS011;41157;53.560;10.098;2022-11-14T09:58:32;53.90;;;30.60;;
55292;SDS011;41157;53.560;10.098;2022-11-14T10:01:02;55.43;;;29.43;;
55292;SDS011;41157;53.560;10.098;2022-11-14T10:06:20;53.20;;;30.80;;
55292;SDS011;41157;53.560;10.098;2022-11-14T10:09:16;60.00;;;30.97;;
55292;SDS011;41157;53.560;10.098;2022-11-14T10:11:51;52.20;;;29.73;;
55292;SDS011;41157;53.560;10.098;2022-11-14T10:28:03;49.40;;;28.80;;
55292;SDS011;41157;53.560;10.098;2022-11-14T10:30:38;49.70;;;29.20;;
55292;SDS011;41157;53.560;10.098;2022-11-14T10:33:11;47.43;;;28.57;;
55292;SDS011;41157;53.560;10.098;2022-11-14T10:35:42;44.87;;;28.03;;
55292;SDS011;41157;53.560;10.098;2022-11-14T10:38:32;49.40;;;29.07;;
55292;SDS011;41157;53.560;10.098;2022-11-14T10:40:58;50.10;;;29.20;;
55292;SDS011;41157;53.560;10.098;2022-11-14T10:46:08;45.03;;;27.50;;
55292;SDS011;41157;53.560;10.098;2022-11-14T10:48:40;42.93;;;26.37;;
55292;SDS011;41157;53.560;10.098;2022-11-14T10:51:12;43.13;;;26.50;;
55292;SDS011;41157;53.560;10.098;2022-11-14T10:56:14;48.07;;;27.10;;
55292;SDS011;41157;53.560;10.098;2022-11-14T10:58:40;44.97;;;27.90;;
55292;SDS011;41157;53.560;10.098;2022-11-14T11:03:51;43.20;;;26.77;;
55292;SDS011;41157;53.560;10.098;2022-11-14T11:06:26;44.43;;;27.07;;
55292;SDS011;41157;53.560;10.098;2022-11-14T11:08:52;43.97;;;26.23;;
55292;SDS011;41157;53.560;10.098;2022-11-14T11:11:38;45.27;;;26.30;;
55292;SDS011;41157;53.560;10.098;2022-11-14T11:14:08;43.67;;;25.50;;
55292;SDS011;41157;53.560;10.098;2022-11-14T11:16:40;42.27;;;26.13;;
55292;SDS011;41157;53.560;10.098;2022-11-14T11:19:13;41.17;;;25.07;;
55292;SDS011;41157;53.560;10.098;2022-11-14T11:21:46;41.13;;;25.30;;
55292;SDS011;41157;53.560;10.098;2022-11-14T11:24:12;40.03;;;26.13;;
55292;SDS011;41157;53.560;10.098;2022-11-14T11:29:39;34.57;;;22.70;;
55292;SDS011;41157;53.560;10.098;2022-11-14T11:32:06;38.90;;;23.93;;
55292;SDS011;41157;53.560;10.098;2022-11-14T18:19:06;47.97;;;26.17;;
55292;SDS011;41157;53.560;10.098;2022-11-14T18:21:32;45.07;;;26.97;;
55292;SDS011;41157;53.560;10.098;2022-11-14T18:23:59;40.27;;;25.33;;
55292;SDS011;41157;53.560;10.098;2022-11-14T18:26:26;42.43;;;25.60;;
55292;SDS011;41157;53.560;10.098;2022-11-14T18:28:54;44.10;;;25.77;;
55292;SDS011;41157;53.560;10.098;2022-11-14T18:31:20;41.70;;;25.63;;
55292;SDS011;41157;53.560;10.098;2022-11-14T18:33:46;41.67;;;25.87;;
55292;SDS011;41157;53.560;10.098;2022-11-14T18:36:12;43.03;;;25.77;;
55292;SDS011;41157;53.560;10.098;2022-11-14T18:38:39;42.43;;;26.20;;
55292;SDS011;41157;53.560;10.098;2022-11-14T18:41:06;39.60;;;25.20;;
55292;SDS011;41157;53.560;10.098;2022-11-14T18:43:32;38.93;;;25.60;;
55292;SDS011;41157;53.560;10.098;2022-11-14T18:46:09;39.00;;;25.20;;
55292;SDS011;41157;53.560;10.098;2022-11-14T18:48:36;40.03;;;25.53;;
55292;SDS011;41157;53.560;10.098;2022-11-14T18:51:03;38.00;;;24.93;;
55292;SDS011;41157;53.560;10.098;2022-11-14T18:53:33;37.57;;;23.87;;
55292;SDS011;41157;53.560;10.098;2022-11-14T18:56:09;38.63;;;24.23;;
55292;SDS011;41157;53.560;10.098;2022-11-14T18:58:35;40.37;;;26.33;;
55292;SDS011;41157;53.560;10.098;2022-11-14T19:03:38;41.07;;;25.47;;
55292;SDS011;41157;53.560;10.098;2022-11-14T19:06:05;41.23;;;25.97;;
55292;SDS011;41157;53.560;10.098;2022-11-14T19:08:31;39.47;;;25.03;;
55292;SDS011;41157;53.560;10.098;2022-11-14T19:11:01;39.40;;;25.17;;
55292;SDS011;41157;53.560;10.098;2022-11-14T19:13:27;39.83;;;24.30;;
55292;SDS011;41157;53.560;10.098;2022-11-14T19:15:53;38.13;;;24.03;;
55292;SDS011;41157;53.560;10.098;2022-11-14T19:18:19;36.13;;;23.63;;
55292;SDS011;41157;53.560;10.098;2022-11-14T19:20:54;38.30;;;24.00;;
55292;SDS011;41157;53.560;10.098;2022-11-14T19:23:21;43.03;;;25.90;;
55292;SDS011;41157;53.560;10.098;2022-11-14T19:25:47;38.30;;;24.90;;
55292;SDS011;41157;53.560;10.098;2022-11-14T19:28:13;37.93;;;23.90;;
55292;SDS011;41157;53.560;10.098;2022-11-14T19:30:38;39.23;;;24.37;;
55292;SDS011;41157;53.560;10.098;2022-11-14T19:33:04;37.73;;;24.10;;
55292;SDS011;41157;53.560;10.098;2022-11-14T19:35:30;38.83;;;23.87;;
55292;SDS011;41157;53.560;10.098;2022-11-14T19:37:56;38.77;;;23.80;;
55292;SDS011;41157;53.560;10.098;2022-11-14T19:40:22;41.37;;;24.90;;
55292;SDS011;41157;53.560;10.098;2022-11-14T19:42:51;39.27;;;24.83;;
55292;SDS011;41157;53.560;10.098;2022-11-14T19:45:19;42.30;;;25.33;;
55292;SDS011;41157;53.560;10.098;2022-11-14T19:47:45;40.63;;;24.47;;
55292;SDS011;41157;53.560;10.098;2022-11-14T19:50:13;41.50;;;24.37;;
55292;SDS011;41157;53.560;10.098;2022-11-14T19:52:39;34.00;;;23.07;;
55292;SDS011;41157;53.560;10.098;2022-11-14T19:55:05;44.73;;;25.60;;
55292;SDS011;41157;53.560;10.098;2022-11-14T19:57:31;37.03;;;23.90;;
55292;SDS011;41157;53.560;10.098;2022-11-14T19:59:56;40.57;;;25.73;;
55292;SDS011;41157;53.560;10.098;2022-11-14T20:02:22;38.13;;;24.63;;
55292;SDS011;41157;53.560;10.098;2022-11-14T20:04:49;40.57;;;24.83;;
55292;SDS011;41157;53.560;10.098;2022-11-14T20:07:15;36.07;;;23.17;;
55292;SDS011;41157;53.560;10.098;2022-11-14T20:09:41;36.10;;;23.10;;
55292;SDS011;41157;53.560;10.098;2022-11-14T20:12:07;42.40;;;25.43;;
55292;SDS011;41157;53.560;10.098;2022-11-14T20:14:33;39.30;;;24.03;;
55292;SDS011;41157;53.560;10.098;2022-11-14T20:16:59;36.07;;;25.40;;
55292;SDS011;41157;53.560;10.098;2022-11-14T20:19:25;41.93;;;25.70;;
55292;SDS011;41157;53.560;10.098;2022-11-14T20:21:51;45.60;;;26.20;;
55292;SDS011;41157;53.560;10.098;2022-11-14T20:24:17;42.83;;;26.87;;
55292;SDS011;41157;53.560;10.098;2022-11-14T20:26:46;37.10;;;24.07;;
55292;SDS011;41157;53.560;10.098;2022-11-14T20:29:13;39.93;;;24.57;;
55292;SDS011;41157;53.560;10.098;2022-11-14T20:31:39;37.70;;;24.40;;
55292;SDS011;41157;53.560;10.098;2022-11-14T20:34:05;38.10;;;23.63;;
55292;SDS011;41157;53.560;10.098;2022-11-14T20:36:31;37.47;;;23.93;;
55292;SDS011;41157;53.560;10.098;2022-11-14T20:38:56;38.90;;;23.33;;
55292;SDS011;41157;53.560;10.098;2022-11-14T20:41:23;35.83;;;23.33;;
55292;SDS011;41157;53.560;10.098;2022-11-14T20:43:49;39.63;;;23.23;;
55292;SDS011;41157;53.560;10.098;2022-11-14T20:46:19;34.77;;;23.53;;
55292;SDS011;41157;53.560;10.098;2022-11-14T20:48:48;36.43;;;23.70;;
55292;SDS011;41157;53.560;10.098;2022-11-14T20:51:19;40.43;;;24.77;;
55292;SDS011;41157;53.560;10.098;2022-11-14T20:53:45;36.27;;;23.00;;
55292;SDS011;41157;53.560;10.098;2022-11-14T20:56:11;41.73;;;24.73;;
55292;SDS011;41157;53.560;10.098;2022-11-14T20:58:40;37.00;;;24.17;;
55292;SDS011;41157;53.560;10.098;2022-11-14T21:01:07;35.97;;;23.43;;
55292;SDS011;41157;53.560;10.098;2022-11-14T21:03:33;42.57;;;25.47;;
55292;SDS011;41157;53.560;10.098;2022-11-14T21:06:00;39.17;;;24.30;;
55292;SDS011;41157;53.560;10.098;2022-11-14T21:08:26;37.20;;;23.73;;
55292;SDS011;41157;53.560;10.098;2022-11-14T21:10:56;34.67;;;23.97;;
55292;SDS011;41157;53.560;10.098;2022-11-14T21:13:22;37.43;;;24.97;;
55292;SDS011;41157;53.560;10.098;2022-11-14T21:16:08;33.03;;;23.77;;
55292;SDS011;41157;53.560;10.098;2022-11-14T21:18:35;39.20;;;24.67;;
55292;SDS011;41157;53.560;10.098;2022-11-14T21:21:03;40.47;;;26.80;;
55292;SDS011;41157;53.560;10.098;2022-11-14T21:23:29;39.23;;;25.60;;
55292;SDS011;41157;53.560;10.098;2022-11-14T21:26:02;37.77;;;24.70;;
55292;SDS011;41157;53.560;10.098;2022-11-14T21:28:29;40.23;;;25.33;;
55292;SDS011;41157;53.560;10.098;2022-11-14T21:30:55;41.57;;;24.93;;
55292;SDS011;41157;53.560;10.098;2022-11-14T21:33:23;40.67;;;24.97;;
55292;SDS011;41157;53.560;10.098;2022-11-14T21:35:52;38.83;;;25.70;;
55292;SDS011;41157;53.560;10.098;2022-11-14T21:38:18;43.63;;;26.87;;
55292;SDS011;41157;53.560;10.098;2022-11-14T21:40:49;40.97;;;26.53;;